Latest Weather Observations for Karratha

IDW60801

Issued at 12:35 pm WST Sunday 26 October 2014 (issued every 30 minutes, with the page automatically refreshed every 10 minutes)

About weather observations | Map of weather stations | Latest weather observations for WA | Other Formats
Station Details ID: 004083 Name: KARRATHA AERO Lat: -20.71 Lon: 116.77 Height: 5.3 m
Data from the previous 72 hours. | See also: Recent months at Karratha
Date/Time
WST
Temp
°C
App
Temp
°C
Dew
Point
Rel
Hum
%
Delta-T
°C
Wind Press
QNH
hPa
Press
MSL
hPa
Rain
since 9 am
mm
Dir
 
Spd
km/h
Gust
km/h
Spd
kts
Gust
kts
26/12:30pm 34.7 30.1 12.4 26 13.4 WNW 28 35 15 19 1011.7 1011.7 0.0
26/12:00pm 34.7 31.4 15.1 31 12.2 WNW 26 32 14 17 1012.2 1012.2 0.0
26/11:30am 34.3 31.1 14.2 29 12.3 W 24 30 13 16 1012.5 1012.5 0.0
26/11:00am 33.4 31.1 15.8 34 11.0 W 22 30 12 16 1013.0 1013.0 0.0
26/10:30am 33.6 32.6 16.5 36 10.8 WNW 17 20 9 11 1013.1 1013.1 0.0
26/10:00am 35.0 31.5 8.7 20 14.9 W 17 20 9 11 1013.4 1013.4 0.0
26/09:30am 33.7 30.5 8.3 21 14.2 W 15 19 8 10 1013.4 1013.4 0.0
26/09:00am 32.1 29.4 10.2 26 12.5 W 15 17 8 9 1013.5 1013.5 0.0
26/08:30am 30.0 28.7 12.4 34 10.3 W 11 13 6 7 1013.5 1013.5 0.0
26/08:00am 28.6 26.5 11.2 34 10.0 W 13 15 7 8 1013.3 1013.3 0.0
26/07:30am 26.8 24.4 11.3 38 8.8 W 15 17 8 9 1013.2 1013.2 0.0
26/07:00am 25.8 23.5 11.9 42 7.9 W 15 19 8 10 1013.1 1013.1 0.0
26/06:30am 24.5 23.1 13.4 50 6.5 W 13 17 7 9 1012.8 1012.8 0.0
26/06:00am 22.8 21.0 13.3 55 5.5 WSW 15 17 8 9 1012.4 1012.4 0.0
26/05:30am 22.3 21.4 13.6 58 5.0 WSW 11 13 6 7 1012.2 1012.2 0.0
26/05:00am 23.0 21.5 14.3 58 5.1 WSW 15 17 8 9 1011.9 1011.9 0.0
26/04:30am 23.6 22.5 15.4 60 4.9 WSW 15 19 8 10 1011.7 1011.7 0.0
26/04:00am 23.9 22.6 15.7 60 5.0 W 17 19 9 10 1011.5 1011.5 0.0
26/03:30am 22.9 22.1 16.0 65 4.2 W 15 17 8 9 1011.5 1011.5 0.0
26/03:00am 23.2 23.8 16.7 67 4.0 WSW 9 11 5 6 1011.6 1011.6 0.0
26/02:30am 24.1 24.3 17.6 67 4.0 WSW 13 15 7 8 1011.6 1011.6 0.0
26/02:00am 25.1 25.3 18.5 67 4.2 WSW 15 17 8 9 1011.5 1011.5 0.0
26/01:30am 25.4 25.5 18.3 65 4.5 WSW 15 15 8 8 1011.5 1011.5 0.0
26/01:00am 25.6 25.4 18.5 65 4.5 W 17 20 9 11 1011.7 1011.7 0.0
26/12:30am 25.7 25.7 18.9 66 4.3 WSW 17 20 9 11 1011.9 1011.9 0.0
26/12:00am 25.5 25.5 18.9 67 4.2 WSW 17 19 9 10 1012.1 1012.1 0.0
 
Date/Time
WST
Temp
°C
App
Temp
°C
Dew
Point
Rel
Hum
%
Delta-T
°C
Wind Press
QNH
hPa
Press
MSL
hPa
Rain
since 9 am
mm
Dir
 
Spd
km/h
Gust
km/h
Spd
kts
Gust
kts
25/11:30pm 25.8 25.4 19.0 66 4.4 WSW 19 20 10 11 1012.3 1012.3 0.0
25/11:00pm 26.1 26.0 18.8 64 4.7 WSW 17 22 9 12 1012.6 1012.6 0.0
25/10:30pm 26.6 25.3 19.0 63 4.9 WSW 24 30 13 16 1012.5 1012.5 0.0
25/10:00pm 26.9 26.0 19.0 62 5.1 WSW 22 26 12 14 1012.6 1012.6 0.0
25/09:30pm 27.1 25.5 18.4 59 5.5 WSW 24 28 13 15 1012.5 1012.5 0.0
25/09:00pm 27.4 25.7 18.1 57 5.9 W 24 30 13 16 1012.5 1012.5 0.0
25/08:30pm 27.8 25.9 18.5 57 5.9 WSW 26 32 14 17 1012.4 1012.4 0.0
25/08:00pm 28.2 25.8 18.3 55 6.3 WSW 28 33 15 18 1012.2 1012.2 0.0
25/07:30pm 28.6 26.4 18.7 55 6.4 W 28 35 15 19 1012.0 1012.0 0.0
25/07:00pm 28.9 25.8 18.4 53 6.7 W 32 37 17 20 1011.7 1011.7 0.0
25/06:30pm 29.1 25.9 18.5 52 6.8 W 33 43 18 23 1011.5 1011.5 0.0
25/06:00pm 29.4 25.4 19.4 55 6.5 W 39 46 21 25 1011.2 1011.2 0.0
25/05:30pm 30.5 26.3 18.9 50 7.5 W 39 48 21 26 1011.0 1011.0 0.0
25/05:00pm 30.2 26.2 20.2 55 6.6 W 41 48 22 26 1010.7 1010.7 0.0
25/04:30pm 30.9 26.1 19.6 51 7.4 W 44 54 24 29 1010.6 1010.6 0.0
25/04:00pm 31.4 27.0 19.4 49 7.9 W 41 48 22 26 1010.6 1010.6 0.0
25/03:30pm 31.2 26.3 19.5 49 7.7 W 44 52 24 28 1010.7 1010.7 0.0
25/03:00pm 32.1 26.8 19.4 47 8.3 W 46 56 25 30 1010.7 1010.7 0.0
25/02:30pm 32.3 26.5 17.4 41 9.5 W 44 54 24 29 1011.0 1011.0 0.0
25/02:00pm 32.9 27.3 17.5 39 9.9 W 43 52 23 28 1011.3 1011.3 0.0
25/01:30pm 32.4 27.7 18.6 44 9.0 W 41 48 22 26 1011.6 1011.6 0.0
25/01:00pm 32.2 27.8 18.4 44 8.9 W 39 46 21 25 1012.1 1012.1 0.0
25/12:30pm 32.3 28.0 17.7 41 9.4 W 37 46 20 25 1012.4 1012.4 0.0
25/12:00pm 33.4 28.3 14.9 32 11.4 W 35 46 19 25 1012.9 1012.9 0.0
25/11:30am 35.0 30.5 12.6 26 13.5 W 28 37 15 20 1013.0 1013.0 0.0
25/11:00am 35.9 32.0 9.4 20 15.2 W 20 30 11 16 1013.4 1013.4 0.0
25/10:30am 35.0 31.6 11.4 24 13.9 W 20 26 11 14 1013.7 1013.7 0.0
25/10:00am 35.0 31.3 7.9 19 15.2 W 17 20 9 11 1013.9 1013.9 0.0
25/09:30am 32.9 29.3 9.7 24 13.2 W 19 22 10 12 1014.1 1014.1 0.0
25/09:00am 31.3 28.6 11.7 30 11.4 W 17 20 9 11 1014.2 1014.2 0.0
25/08:30am 29.3 25.6 9.4 29 11.1 W 19 20 10 11 1014.2 1014.2 0.0
25/08:00am 27.4 23.8 10.6 35 9.5 W 20 24 11 13 1014.1 1014.1 0.0
25/07:30am 26.1 23.1 10.7 38 8.6 W 17 20 9 11 1013.9 1013.9 0.0
25/07:00am 25.0 21.7 10.8 41 7.9 WSW 19 24 10 13 1013.6 1013.6 0.0
25/06:30am 24.2 21.8 12.5 48 6.7 WSW 17 20 9 11 1013.3 1013.3 0.0
25/06:00am 23.1 20.2 12.4 51 6.1 WSW 19 20 10 11 1012.9 1012.9 0.0
25/05:30am 22.3 20.3 11.4 50 6.1 WSW 13 17 7 9 1012.7 1012.7 0.0
25/05:00am 23.5 21.5 12.8 51 6.1 WSW 15 17 8 9 1012.4 1012.4 0.0
25/04:30am 24.0 21.2 12.6 49 6.5 WSW 19 20 10 11 1012.2 1012.2 0.0
25/04:00am 23.5 21.2 13.1 52 6.0 WSW 17 19 9 10 1011.9 1011.9 0.0
25/03:30am 24.1 21.6 12.4 48 6.7 WSW 17 20 9 11 1011.7 1011.7 0.0
25/03:00am 24.9 23.3 15.0 54 5.9 WSW 17 20 9 11 1011.5 1011.5 0.0
25/02:30am 25.2 23.7 15.2 54 6.0 WSW 17 19 9 10 1011.4 1011.4 0.0
25/02:00am 25.6 24.0 15.9 55 5.9 WSW 19 22 10 12 1011.3 1011.3 0.0
25/01:30am 25.6 24.2 17.0 59 5.3 W 20 24 11 13 1011.2 1011.2 0.0
25/01:00am 25.7 24.5 17.1 59 5.3 WSW 19 22 10 12 1011.4 1011.4 0.0
25/12:30am 26.0 24.9 17.4 59 5.4 W 19 22 10 12 1011.7 1011.7 0.0
25/12:00am 26.1 24.5 17.5 59 5.4 W 22 26 12 14 1011.7 1011.7 0.0
 
Date/Time
WST
Temp
°C
App
Temp
°C
Dew
Point
Rel
Hum
%
Delta-T
°C
Wind Press
QNH
hPa
Press
MSL
hPa
Rain
since 9 am
mm
Dir
 
Spd
km/h
Gust
km/h
Spd
kts
Gust
kts
24/11:30pm 26.1 25.0 17.7 60 5.3 W 20 24 11 13 1011.9 1011.9 0.0
24/11:00pm 26.2 24.7 17.6 59 5.4 W 22 26 12 14 1012.0 1012.0 0.0
24/10:30pm 26.4 24.4 17.5 58 5.6 W 24 28 13 15 1012.0 1012.0 0.0
24/10:00pm 26.6 23.7 17.1 56 5.9 W 28 32 15 17 1011.8 1011.8 0.0
24/09:30pm 27.0 24.7 17.5 56 6.0 W 26 33 14 18 1011.6 1011.6 0.0
24/09:00pm 27.4 25.1 17.6 55 6.2 W 26 32 14 17 1011.4 1011.4 0.0
24/08:30pm 27.8 25.1 16.7 50 6.9 W 26 32 14 17 1011.0 1011.0 0.0
24/08:00pm 28.0 25.3 16.6 50 7.1 W 26 32 14 17 1010.6 1010.6 0.0
24/07:30pm 27.8 24.9 17.9 54 6.3 W 30 35 16 19 1010.2 1010.2 0.0
24/07:00pm 28.0 24.8 18.7 57 6.0 W 33 39 18 21 1009.8 1009.8 0.0
24/06:30pm 28.5 25.4 19.7 59 5.7 W 35 41 19 22 1009.3 1009.3 0.0
24/06:00pm 29.4 26.5 18.8 53 6.9 W 32 39 17 21 1009.0 1009.0 0.0
24/05:30pm 30.1 25.5 17.9 48 7.8 W 39 44 21 24 1008.6 1008.6 0.0
24/05:00pm 31.5 27.7 18.1 44 8.6 W 35 44 19 24 1008.2 1008.2 0.0
24/04:30pm 32.0 27.2 17.5 42 9.3 W 39 52 21 28 1008.1 1008.1 0.0
24/04:00pm 32.5 28.2 16.8 39 10.0 W 35 43 19 23 1008.0 1008.0 0.0
24/03:30pm 33.3 27.7 14.4 32 11.6 W 37 46 20 25 1008.2 1008.2 0.0
24/03:00pm 33.8 27.9 14.8 32 11.8 W 39 46 21 25 1008.3 1008.3 0.0
24/02:30pm 34.1 28.4 14.1 30 12.3 W 37 48 20 26 1008.6 1008.6 0.0
24/02:00pm 34.0 27.7 13.5 29 12.5 W 39 46 21 25 1009.1 1009.1 0.0
24/01:30pm 34.1 30.4 16.9 36 11.0 W 32 41 17 22 1009.4 1009.4 0.0
24/01:00pm 34.1 31.5 18.6 40 10.1 W 30 35 16 19 1009.9 1009.9 0.0
24/12:30pm 34.1 31.9 18.6 40 10.1 W 28 33 15 18 1010.2 1010.2 0.0
24/12:00pm 34.0 31.7 18.5 40 10.1 W 28 35 15 19 1010.3 1010.3 0.0
24/11:30am 33.6 31.9 18.1 39 10.0 WNW 24 28 13 15 1010.7 1010.7 0.0
24/11:00am 35.5 35.5 18.1 35 11.3 NW 15 19 8 10 1010.9 1010.9 0.0
24/10:30am 35.0 34.2 17.2 34 11.4 WNW 17 20 9 11 1011.2 1011.2 0.0
24/10:00am 34.2 31.6 13.1 28 12.7 W 19 24 10 13 1011.4 1011.4 0.0
24/09:30am 31.8 29.9 15.3 37 10.2 W 19 20 10 11 1011.7 1011.7 0.0
24/09:00am 30.2 28.1 15.1 40 9.3 W 20 24 11 13 1011.7 1011.7 0.0
24/08:30am 28.7 26.2 14.1 40 8.8 W 20 24 11 13 1011.8 1011.8 0.0
24/08:00am 26.7 24.3 14.5 47 7.3 W 20 26 11 14 1011.7 1011.7 0.0
24/07:30am 26.0 23.0 13.8 47 7.2 WSW 22 26 12 14 1011.5 1011.5 0.0
24/07:00am 25.1 22.4 13.6 49 6.7 W 20 22 11 12 1011.3 1011.3 0.0
24/06:30am 24.0 22.3 14.7 56 5.5 WSW 17 20 9 11 1011.2 1011.2 0.0
24/06:00am 23.0 21.3 14.8 60 4.9 WSW 17 19 9 10 1011.2 1011.2 0.0
24/05:30am 22.9 21.5 15.5 63 4.4 WSW 17 19 9 10 1011.0 1011.0 0.0
24/05:00am 22.9 21.6 15.7 64 4.3 WSW 17 20 9 11 1010.6 1010.6 0.0
24/04:30am 22.9 21.9 15.7 64 4.3 WSW 15 17 8 9 1010.6 1010.6 0.0
24/04:00am 23.5 22.1 15.5 60 4.8 W 17 20 9 11 1010.5 1010.5 0.0
24/03:30am 23.8 22.6 16.1 62 4.7 W 17 19 9 10 1010.4 1010.4 0.0
24/03:00am 23.5 23.2 16.5 65 4.3 W 13 15 7 8 1010.4 1010.4 0.0
24/02:30am 23.9 23.5 16.2 62 4.7 WSW 13 17 7 9 1010.4 1010.4 0.0
24/02:00am 24.3 23.3 16.6 62 4.7 W 17 20 9 11 1010.1 1010.1 0.0
24/01:30am 23.9 23.3 16.7 64 4.4 WSW 15 20 8 11 1010.4 1010.4 0.0
24/01:00am 24.6 24.0 17.6 65 4.4 SW 17 20 9 11 1010.8 1010.8 0.0
24/12:30am 25.2 23.2 18.2 65 4.4 WSW 26 32 14 17 1010.6 1010.6 0.0
24/12:00am 25.3 23.1 18.7 67 4.2 WSW 28 35 15 19 1010.8 1010.8 0.0
 
Date/Time
WST
Temp
°C
App
Temp
°C
Dew
Point
Rel
Hum
%
Delta-T
°C
Wind Press
QNH
hPa
Press
MSL
hPa
Rain
since 9 am
mm
Dir
 
Spd
km/h
Gust
km/h
Spd
kts
Gust
kts
23/11:30pm 25.6 23.5 19.0 67 4.2 WSW 28 33 15 18 1011.2 1011.2 0.0
23/11:00pm 25.7 23.7 19.1 67 4.2 WSW 28 33 15 18 1011.4 1011.4 0.0
23/10:30pm 25.9 23.7 18.8 65 4.5 W 28 33 15 18 1011.6 1011.6 0.0
23/10:00pm 26.1 24.0 19.0 65 4.6 W 28 33 15 18 1011.7 1011.7 0.0
23/09:30pm 26.4 23.7 18.5 62 5.0 WSW 30 35 16 19 1011.7 1011.7 0.0
23/09:00pm 26.7 23.9 18.3 60 5.3 W 30 37 16 20 1011.4 1011.4 0.0
23/08:30pm 27.0 24.2 18.3 59 5.5 WSW 30 35 16 19 1011.2 1011.2 0.0
23/08:00pm 27.2 24.7 19.8 64 4.8 W 32 39 17 21 1010.9 1010.9 0.0
23/07:30pm 27.4 25.1 20.2 65 4.7 W 32 41 17 22 1010.7 1010.7 0.0
23/07:00pm 27.5 25.2 20.6 66 4.5 W 33 43 18 23 1010.4 1010.4 0.0
23/06:30pm 27.6 25.4 21.4 69 4.1 W 35 43 19 23 1010.0 1010.0 0.0
23/06:00pm 27.8 25.4 21.8 70 4.0 W 37 44 20 24 1009.7 1009.7 0.0
23/05:30pm 28.8 25.0 21.3 64 5.0 W 43 52 23 28 1009.4 1009.4 0.0
23/05:00pm 29.7 26.9 21.1 60 5.7 W 37 44 20 24 1009.1 1009.1 0.0
23/04:30pm 30.4 27.1 20.9 57 6.3 W 39 46 21 25 1009.1 1009.1 0.0
23/04:00pm 30.7 26.8 20.3 53 6.9 W 41 46 22 25 1009.2 1009.2 0.0
23/03:30pm 31.3 27.6 19.9 50 7.5 W 39 48 21 26 1009.3 1009.3 0.0
23/03:00pm 32.3 29.2 18.8 44 8.8 W 33 43 18 23 1009.3 1009.3 0.0
23/02:30pm 33.3 30.3 19.0 42 9.4 W 33 41 18 22 1009.6 1009.6 0.0
23/02:00pm 33.8 30.8 18.7 40 9.9 W 32 39 17 21 1009.9 1009.9 0.0
23/01:30pm 35.1 32.7 18.2 36 11.0 W 28 35 15 19 1010.1 1010.1 0.0
23/01:00pm 34.6 32.0 17.8 37 10.9 W 28 37 15 20 1010.5 1010.5 0.0

Other Formats:

Comma delimited format used in spreadsheet applications
http://www.bom.gov.au/fwo/IDW60801/IDW60801.95307.axf

JavaScript Object Notation format (JSON) in row-major order
http://www.bom.gov.au/fwo/IDW60801/IDW60801.95307.json